sensor_id;sensor_type;location;lat;lon;timestamp;pressure;altitude;pressure_sealevel;temperature;humidity
49178;BME280;35016;55.674;37.468;2023-01-30T03:58:37;97818.19;;;-1.29;71.46
49178;BME280;35016;55.674;37.468;2023-01-30T04:01:21;97809.63;;;-1.31;71.48
49178;BME280;35016;55.674;37.468;2023-01-30T04:03:50;97810.22;;;-1.29;71.58
49178;BME280;35016;55.674;37.468;2023-01-30T04:06:18;97801.78;;;-1.26;71.44
49178;BME280;35016;55.674;37.468;2023-01-30T04:08:46;97793.81;;;-1.26;71.52
49178;BME280;35016;55.674;37.468;2023-01-30T04:11:26;97789.75;;;-1.29;71.37
49178;BME280;35016;55.674;37.468;2023-01-30T04:26:10;97771.25;;;-1.35;71.46
49178;BME280;35016;55.674;37.468;2023-01-30T04:28:40;97765.94;;;-1.35;71.43
49178;BME280;35016;55.674;37.468;2023-01-30T04:32:48;97765.34;;;-1.37;71.70
49178;BME280;35016;55.674;37.468;2023-01-30T04:35:57;97764.75;;;-1.39;71.59
49178;BME280;35016;55.674;37.468;2023-01-30T04:38:29;97754.13;;;-1.39;71.67
49178;BME280;35016;55.674;37.468;2023-01-30T04:41:03;97752.28;;;-1.39;71.65
49178;BME280;35016;55.674;37.468;2023-01-30T04:43:44;97753.53;;;-1.41;71.63
49178;BME280;35016;55.674;37.468;2023-01-30T04:50:16;97737.81;;;-1.43;71.56
49178;BME280;35016;55.674;37.468;2023-01-30T04:54:10;97725.75;;;-1.45;71.54
49178;BME280;35016;55.674;37.468;2023-01-30T04:57:58;97723.34;;;-1.47;71.50
49178;BME280;35016;55.674;37.468;2023-01-30T05:00:26;97722.09;;;-1.44;71.68
49178;BME280;35016;55.674;37.468;2023-01-30T05:02:57;97726.38;;;-1.43;71.51
49178;BME280;35016;55.674;37.468;2023-01-30T05:05:24;97703.03;;;-1.41;71.57
49178;BME280;35016;55.674;37.468;2023-01-30T05:07:52;97717.94;;;-1.40;71.63
49178;BME280;35016;55.674;37.468;2023-01-30T05:10:19;97708.34;;;-1.41;71.62
49178;BME280;35016;55.674;37.468;2023-01-30T05:12:48;97694.25;;;-1.42;71.64
49178;BME280;35016;55.674;37.468;2023-01-30T05:15:15;97696.31;;;-1.44;71.60
49178;BME280;35016;55.674;37.468;2023-01-30T05:17:43;97687.09;;;-1.41;71.55
49178;BME280;35016;55.674;37.468;2023-01-30T05:20:11;97676.44;;;-1.41;71.59
49178;BME280;35016;55.674;37.468;2023-01-30T05:22:38;97675.06;;;-1.44;71.62
49178;BME280;35016;55.674;37.468;2023-01-30T05:25:05;97680.38;;;-1.44;71.65
49178;BME280;35016;55.674;37.468;2023-01-30T05:27:32;97665.66;;;-1.46;71.44
49178;BME280;35016;55.674;37.468;2023-01-30T05:29:59;97669.94;;;-1.45;71.63
49178;BME280;35016;55.674;37.468;2023-01-30T05:32:28;97668.72;;;-1.43;71.59
49178;BME280;35016;55.674;37.468;2023-01-30T05:34:56;97660.72;;;-1.43;71.49
49178;BME280;35016;55.674;37.468;2023-01-30T05:37:23;97656.81;;;-1.40;71.53
49178;BME280;35016;55.674;37.468;2023-01-30T05:44:10;97659.47;;;-1.40;71.58
49178;BME280;35016;55.674;37.468;2023-01-30T05:46:42;97661.31;;;-1.41;71.63
49178;BME280;35016;55.674;37.468;2023-01-30T05:49:09;97650.34;;;-1.44;71.64
49178;BME280;35016;55.674;37.468;2023-01-30T05:51:37;97654.38;;;-1.42;71.63
49178;BME280;35016;55.674;37.468;2023-01-30T05:54:04;97642.72;;;-1.41;71.55
49178;BME280;35016;55.674;37.468;2023-01-30T05:56:31;97632.66;;;-1.39;71.60
49178;BME280;35016;55.674;37.468;2023-01-30T05:59:00;97642.25;;;-1.38;71.66
49178;BME280;35016;55.674;37.468;2023-01-30T06:01:29;97622.84;;;-1.38;71.62
49178;BME280;35016;55.674;37.468;2023-01-30T06:03:56;97620.97;;;-1.38;71.52
49178;BME280;35016;55.674;37.468;2023-01-30T06:06:24;97623.63;;;-1.38;71.50
49178;BME280;35016;55.674;37.468;2023-01-30T06:08:51;97620.97;;;-1.38;71.51
49178;BME280;35016;55.674;37.468;2023-01-30T06:11:19;97624.44;;;-1.37;71.73
49178;BME280;35016;55.674;37.468;2023-01-30T06:13:46;97627.69;;;-1.35;71.59
49178;BME280;35016;55.674;37.468;2023-01-30T06:16:13;97625.84;;;-1.35;71.67
49178;BME280;35016;55.674;37.468;2023-01-30T06:18:44;97617.88;;;-1.35;71.55
49178;BME280;35016;55.674;37.468;2023-01-30T06:21:14;97622.38;;;-1.35;71.53
49178;BME280;35016;55.674;37.468;2023-01-30T06:23:42;97617.06;;;-1.35;71.46
49178;BME280;35016;55.674;37.468;2023-01-30T06:26:09;97624.78;;;-1.34;71.67
49178;BME280;35016;55.674;37.468;2023-01-30T06:28:39;97620.28;;;-1.33;71.53
49178;BME280;35016;55.674;37.468;2023-01-30T06:31:06;97626.66;;;-1.34;71.70
49178;BME280;35016;55.674;37.468;2023-01-30T06:33:34;97620.53;;;-1.35;71.58
49178;BME280;35016;55.674;37.468;2023-01-30T06:36:02;97617.63;;;-1.33;71.64
49178;BME280;35016;55.674;37.468;2023-01-30T06:38:29;97616.38;;;-1.31;71.65
49178;BME280;35016;55.674;37.468;2023-01-30T06:40:56;97613.00;;;-1.26;71.85
49178;BME280;35016;55.674;37.468;2023-01-30T06:43:23;97602.38;;;-1.26;71.56
49178;BME280;35016;55.674;37.468;2023-01-30T06:45:50;97616.47;;;-1.26;71.63
49178;BME280;35016;55.674;37.468;2023-01-30T06:48:20;97611.16;;;-1.26;71.63
49178;BME280;35016;55.674;37.468;2023-01-30T06:50:47;97618.91;;;-1.24;71.67
49178;BME280;35016;55.674;37.468;2023-01-30T06:53:15;97612.53;;;-1.23;71.67
49178;BME280;35016;55.674;37.468;2023-01-30T06:55:44;97610.22;;;-1.19;71.66
49178;BME280;35016;55.674;37.468;2023-01-30T06:58:12;97605.94;;;-1.20;71.45
49178;BME280;35016;55.674;37.468;2023-01-30T07:00:40;97612.53;;;-1.23;71.52
49178;BME280;35016;55.674;37.468;2023-01-30T07:03:12;97606.19;;;-1.22;71.67
49178;BME280;35016;55.674;37.468;2023-01-30T07:05:39;97603.28;;;-1.20;71.55
49178;BME280;35016;55.674;37.468;2023-01-30T07:08:26;97596.13;;;-1.20;71.71
49178;BME280;35016;55.674;37.468;2023-01-30T07:10:53;97604.69;;;-1.18;71.66
49178;BME280;35016;55.674;37.468;2023-01-30T07:13:20;97600.53;;;-1.14;71.55
49178;BME280;35016;55.674;37.468;2023-01-30T07:15:47;97605.75;;;-1.07;71.83
49178;BME280;35016;55.674;37.468;2023-01-30T07:18:14;97599.72;;;-1.03;71.52
49178;BME280;35016;55.674;37.468;2023-01-30T07:20:44;97590.69;;;-1.02;71.49
49178;BME280;35016;55.674;37.468;2023-01-30T07:23:12;97593.69;;;-0.98;71.33
49178;BME280;35016;55.674;37.468;2023-01-30T07:25:39;97577.84;;;-0.93;71.57
49178;BME280;35016;55.674;37.468;2023-01-30T07:28:07;97582.69;;;-0.90;71.51
49178;BME280;35016;55.674;37.468;2023-01-30T07:30:35;97576.22;;;-0.94;71.52
49178;BME280;35016;55.674;37.468;2023-01-30T07:33:03;97570.09;;;-0.95;71.37
49178;BME280;35016;55.674;37.468;2023-01-30T07:35:31;97562.94;;;-0.94;71.57
49178;BME280;35016;55.674;37.468;2023-01-30T07:37:58;97561.88;;;-0.93;71.35
49178;BME280;35016;55.674;37.468;2023-01-30T07:40:25;97568.81;;;-0.92;71.57
49178;BME280;35016;55.674;37.468;2023-01-30T07:43:02;97566.75;;;-0.90;71.64
49178;BME280;35016;55.674;37.468;2023-01-30T07:45:42;97561.56;;;-0.85;71.55
49178;BME280;35016;55.674;37.468;2023-01-30T07:48:10;97564.78;;;-0.83;71.60
49178;BME280;35016;55.674;37.468;2023-01-30T07:50:38;97551.00;;;-0.80;71.75
49178;BME280;35016;55.674;37.468;2023-01-30T07:53:06;97540.94;;;-0.78;71.47
49178;BME280;35016;55.674;37.468;2023-01-30T07:55:34;97540.94;;;-0.78;71.33
49178;BME280;35016;55.674;37.468;2023-01-30T07:58:01;97551.59;;;-0.78;71.70
49178;BME280;35016;55.674;37.468;2023-01-30T08:00:29;97545.22;;;-0.77;71.62
49178;BME280;35016;55.674;37.468;2023-01-30T08:02:56;97540.22;;;-0.73;71.44
49178;BME280;35016;55.674;37.468;2023-01-30T08:05:24;97540.56;;;-0.70;71.71
49178;BME280;35016;55.674;37.468;2023-01-30T08:07:54;97532.09;;;-0.67;71.63
49178;BME280;35016;55.674;37.468;2023-01-30T08:10:22;97529.44;;;-0.67;71.53
49178;BME280;35016;55.674;37.468;2023-01-30T08:12:49;97535.34;;;-0.65;71.46
49178;BME280;35016;55.674;37.468;2023-01-30T08:15:17;97532.19;;;-0.62;71.64
49178;BME280;35016;55.674;37.468;2023-01-30T08:17:54;97523.75;;;-0.58;71.41
49178;BME280;35016;55.674;37.468;2023-01-30T08:20:22;97519.47;;;-0.59;71.35
49178;BME280;35016;55.674;37.468;2023-01-30T08:22:49;97497.72;;;-0.56;71.50
49178;BME280;35016;55.674;37.468;2023-01-30T08:25:17;97500.97;;;-0.54;71.60
49178;BME280;35016;55.674;37.468;2023-01-30T08:27:44;97500.72;;;-0.53;71.60
49178;BME280;35016;55.674;37.468;2023-01-30T08:30:11;97501.28;;;-0.51;71.43
49178;BME280;35016;55.674;37.468;2023-01-30T08:32:38;97502.66;;;-0.48;71.48
49178;BME280;35016;55.674;37.468;2023-01-30T08:35:06;97490.72;;;-0.46;71.41
49178;BME280;35016;55.674;37.468;2023-01-30T08:37:33;97482.81;;;-0.41;71.33
49178;BME280;35016;55.674;37.468;2023-01-30T08:40:00;97487.44;;;-0.36;71.36
49178;BME280;35016;55.674;37.468;2023-01-30T08:42:28;97487.19;;;-0.35;71.31
49178;BME280;35016;55.674;37.468;2023-01-30T08:44:55;97484.84;;;-0.31;71.71
49178;BME280;35016;55.674;37.468;2023-01-30T08:47:22;97484.41;;;-0.28;71.24
49178;BME280;35016;55.674;37.468;2023-01-30T08:49:49;97475.59;;;-0.28;71.30
49178;BME280;35016;55.674;37.468;2023-01-30T08:52:19;97476.63;;;-0.29;71.18
49178;BME280;35016;55.674;37.468;2023-01-30T08:54:47;97479.88;;;-0.27;71.17
49178;BME280;35016;55.674;37.468;2023-01-30T08:57:14;97461.25;;;-0.27;71.21
49178;BME280;35016;55.674;37.468;2023-01-30T08:59:41;97474.56;;;-0.27;71.38
49178;BME280;35016;55.674;37.468;2023-01-30T09:02:11;97456.72;;;-0.27;71.41
49178;BME280;35016;55.674;37.468;2023-01-30T09:04:38;97460.75;;;-0.24;71.63
49178;BME280;35016;55.674;37.468;2023-01-30T09:07:05;97450.91;;;-0.24;71.34
49178;BME280;35016;55.674;37.468;2023-01-30T09:09:32;97445.03;;;-0.26;71.50
49178;BME280;35016;55.674;37.468;2023-01-30T09:11:59;97438.91;;;-0.26;71.67
49178;BME280;35016;55.674;37.468;2023-01-30T09:14:26;97443.97;;;-0.25;71.61
49178;BME280;35016;55.674;37.468;2023-01-30T09:16:56;97440.50;;;-0.25;71.60
49178;BME280;35016;55.674;37.468;2023-01-30T09:19:25;97444.31;;;-0.21;71.50
49178;BME280;35016;55.674;37.468;2023-01-30T09:21:54;97442.44;;;-0.21;71.42
49178;BME280;35016;55.674;37.468;2023-01-30T09:24:23;97438.72;;;-0.20;71.44
49178;BME280;35016;55.674;37.468;2023-01-30T09:26:53;97441.72;;;-0.16;71.06
49178;BME280;35016;55.674;37.468;2023-01-30T09:29:23;97434.53;;;-0.16;71.30
49178;BME280;35016;55.674;37.468;2023-01-30T09:31:51;97422.50;;;-0.18;71.53
49178;BME280;35016;55.674;37.468;2023-01-30T09:34:18;97422.84;;;-0.15;71.47
49178;BME280;35016;55.674;37.468;2023-01-30T09:36:45;97416.78;;;-0.10;71.09
49178;BME280;35016;55.674;37.468;2023-01-30T09:39:12;97415.47;;;-0.08;71.24
49178;BME280;35016;55.674;37.468;2023-01-30T09:47:21;97407.25;;;-0.06;71.22
49178;BME280;35016;55.674;37.468;2023-01-30T09:52:26;97386.19;;;-0.08;71.43
49178;BME280;35016;55.674;37.468;2023-01-30T09:58:20;97373.66;;;-0.07;71.05
49178;BME280;35016;55.674;37.468;2023-01-30T10:00:50;97363.81;;;-0.07;71.36
49178;BME280;35016;55.674;37.468;2023-01-30T10:03:19;97370.19;;;-0.08;71.18
49178;BME280;35016;55.674;37.468;2023-01-30T10:05:54;97371.25;;;-0.09;71.09
49178;BME280;35016;55.674;37.468;2023-01-30T10:08:38;97359.53;;;-0.08;71.30
49178;BME280;35016;55.674;37.468;2023-01-30T10:13:43;97350.00;;;-0.04;71.31
49178;BME280;35016;55.674;37.468;2023-01-30T10:27:03;97338.16;;;0.04;71.47
49178;BME280;35016;55.674;37.468;2023-01-30T10:29:38;97335.25;;;0.06;71.32
49178;BME280;35016;55.674;37.468;2023-01-30T10:32:11;97339.75;;;0.05;71.08
49178;BME280;35016;55.674;37.468;2023-01-30T10:34:42;97336.28;;;0.05;71.65
49178;BME280;35016;55.674;37.468;2023-01-30T10:52:37;97312.06;;;0.06;71.66
49178;BME280;35016;55.674;37.468;2023-01-30T11:01:03;97302.34;;;0.17;71.65
49178;BME280;35016;55.674;37.468;2023-01-30T11:03:59;97299.72;;;0.22;71.53
49178;BME280;35016;55.674;37.468;2023-01-30T11:07:19;97287.78;;;0.24;71.11
49178;BME280;35016;55.674;37.468;2023-01-30T11:14:09;97273.81;;;0.17;71.62
49178;BME280;35016;55.674;37.468;2023-01-30T11:16:47;97269.25;;;0.13;71.54
49178;BME280;35016;55.674;37.468;2023-01-30T11:24:02;97276.38;;;0.07;71.65
49178;BME280;35016;55.674;37.468;2023-01-30T11:26:45;97267.81;;;0.05;71.84
49178;BME280;35016;55.674;37.468;2023-01-30T11:30:09;97270.75;;;0.04;71.45
49178;BME280;35016;55.674;37.468;2023-01-30T11:36:32;97248.63;;;0.03;71.20
49178;BME280;35016;55.674;37.468;2023-01-30T11:47:08;97244.53;;;0.17;71.60
49178;BME280;35016;55.674;37.468;2023-01-30T11:54:06;97244.88;;;0.26;71.35
49178;BME280;35016;55.674;37.468;2023-01-30T11:57:03;97231.25;;;0.22;71.06
49178;BME280;35016;55.674;37.468;2023-01-30T12:05:04;97234.16;;;0.21;71.30
49178;BME280;35016;55.674;37.468;2023-01-30T12:07:33;97233.59;;;0.19;71.15
49178;BME280;35016;55.674;37.468;2023-01-30T12:10:50;97224.81;;;0.18;71.48
49178;BME280;35016;55.674;37.468;2023-01-30T12:12:54;97220.53;;;0.17;71.52
49178;BME280;35016;55.674;37.468;2023-01-30T12:31:04;97211.13;;;0.10;71.36
49178;BME280;35016;55.674;37.468;2023-01-30T12:33:37;97200.47;;;0.10;71.28
49178;BME280;35016;55.674;37.468;2023-01-30T12:36:27;97197.00;;;0.09;71.55
49178;BME280;35016;55.674;37.468;2023-01-30T12:41:47;97187.41;;;0.08;71.34
49178;BME280;35016;55.674;37.468;2023-01-30T12:57:39;97172.53;;;0.12;71.75
49178;BME280;35016;55.674;37.468;2023-01-30T13:00:46;97162.38;;;0.09;71.56
49178;BME280;35016;55.674;37.468;2023-01-30T13:03:34;97156.47;;;0.07;71.78
49178;BME280;35016;55.674;37.468;2023-01-30T13:16:20;97151.91;;;0.03;71.84
49178;BME280;35016;55.674;37.468;2023-01-30T13:18:40;97158.53;;;0.00;71.38
49178;BME280;35016;55.674;37.468;2023-01-30T13:21:12;97139.31;;;-0.02;71.40
49178;BME280;35016;55.674;37.468;2023-01-30T13:23:59;97141.16;;;-0.03;71.75
49178;BME280;35016;55.674;37.468;2023-01-30T13:29:37;97135.03;;;-0.03;71.76
49178;BME280;35016;55.674;37.468;2023-01-30T13:35:22;97124.34;;;-0.08;71.44
49178;BME280;35016;55.674;37.468;2023-01-30T13:37:57;97129.66;;;-0.08;71.82
49178;BME280;35016;55.674;37.468;2023-01-30T13:40:38;97130.97;;;-0.11;71.66
49178;BME280;35016;55.674;37.468;2023-01-30T13:45:41;97129.31;;;-0.17;71.98
49178;BME280;35016;55.674;37.468;2023-01-30T13:53:41;97126.91;;;-0.18;71.85
49178;BME280;35016;55.674;37.468;2023-01-30T14:07:48;97122.88;;;-0.21;72.15
49178;BME280;35016;55.674;37.468;2023-01-30T14:10:16;97133.53;;;-0.21;72.23
49178;BME280;35016;55.674;37.468;2023-01-30T14:12:47;97129.81;;;-0.20;71.63
49178;BME280;35016;55.674;37.468;2023-01-30T14:20:26;97118.41;;;-0.15;71.98
49178;BME280;35016;55.674;37.468;2023-01-30T14:22:54;97120.00;;;-0.14;71.61
49178;BME280;35016;55.674;37.468;2023-01-30T14:25:30;97120.31;;;-0.11;71.72
49178;BME280;35016;55.674;37.468;2023-01-30T14:32:58;97098.50;;;-0.08;71.84
49178;BME280;35016;55.674;37.468;2023-01-30T14:35:34;97101.97;;;-0.07;71.89
49178;BME280;35016;55.674;37.468;2023-01-30T14:40:33;97112.13;;;-0.04;71.67
49178;BME280;35016;55.674;37.468;2023-01-30T14:45:44;97109.53;;;0.01;71.82
49178;BME280;35016;55.674;37.468;2023-01-30T14:53:48;97124.47;;;0.02;71.80
49178;BME280;35016;55.674;37.468;2023-01-30T14:56:30;97122.59;;;0.03;71.51
49178;BME280;35016;55.674;37.468;2023-01-30T15:13:01;97094.34;;;0.02;71.59
49178;BME280;35016;55.674;37.468;2023-01-30T15:15:39;97102.34;;;0.02;71.75
49178;BME280;35016;55.674;37.468;2023-01-30T15:23:13;97092.91;;;-0.06;71.45
49178;BME280;35016;55.674;37.468;2023-01-30T15:28:48;97084.69;;;-0.05;72.02
49178;BME280;35016;55.674;37.468;2023-01-30T15:31:27;97086.84;;;-0.02;71.72
49178;BME280;35016;55.674;37.468;2023-01-30T15:34:18;97099.09;;;-0.01;71.55
49178;BME280;35016;55.674;37.468;2023-01-30T15:36:45;97094.34;;;0.02;71.78
49178;BME280;35016;55.674;37.468;2023-01-30T15:39:45;97091.44;;;0.03;71.76
49178;BME280;35016;55.674;37.468;2023-01-30T15:42:12;97093.31;;;0.03;71.76
49178;BME280;35016;55.674;37.468;2023-01-30T15:51:15;97082.94;;;0.06;71.89
49178;BME280;35016;55.674;37.468;2023-01-30T15:53:46;97080.28;;;0.06;71.35
49178;BME280;35016;55.674;37.468;2023-01-30T15:56:24;97072.03;;;0.08;71.87
49178;BME280;35016;55.674;37.468;2023-01-30T15:59:04;97069.91;;;0.10;71.58
49178;BME280;35016;55.674;37.468;2023-01-30T16:07:45;97062.97;;;0.09;71.68
49178;BME280;35016;55.674;37.468;2023-01-30T16:11:33;97049.66;;;0.09;71.47
49178;BME280;35016;55.674;37.468;2023-01-30T16:14:59;97046.75;;;0.10;71.73
49178;BME280;35016;55.674;37.468;2023-01-30T16:20:57;97041.41;;;0.10;71.66
49178;BME280;35016;55.674;37.468;2023-01-30T16:23:37;97071.78;;;0.09;71.52
49178;BME280;35016;55.674;37.468;2023-01-30T16:26:14;97074.44;;;0.09;71.65
49178;BME280;35016;55.674;37.468;2023-01-30T16:28:44;97073.13;;;0.12;71.84
49178;BME280;35016;55.674;37.468;2023-01-30T16:31:16;97057.94;;;0.12;71.74
49178;BME280;35016;55.674;37.468;2023-01-30T16:33:50;97063.28;;;0.12;71.38
49178;BME280;35016;55.674;37.468;2023-01-30T16:42:29;97064.09;;;0.13;71.56
49178;BME280;35016;55.674;37.468;2023-01-30T16:47:45;97065.44;;;0.15;71.88
49178;BME280;35016;55.674;37.468;2023-01-30T16:50:16;97046.28;;;0.18;71.61
49178;BME280;35016;55.674;37.468;2023-01-30T16:52:45;97042.81;;;0.18;71.30
49178;BME280;35016;55.674;37.468;2023-01-30T16:55:21;97049.75;;;0.19;71.31
49178;BME280;35016;55.674;37.468;2023-01-30T16:57:53;97060.41;;;0.19;71.44
49178;BME280;35016;55.674;37.468;2023-01-30T17:00:27;97054.00;;;0.20;71.73
49178;BME280;35016;55.674;37.468;2023-01-30T17:03:04;97055.63;;;0.21;71.78
49178;BME280;35016;55.674;37.468;2023-01-30T17:05:37;97051.09;;;0.21;71.72
49178;BME280;35016;55.674;37.468;2023-01-30T17:16:44;97032.94;;;0.18;71.46
49178;BME280;35016;55.674;37.468;2023-01-30T17:19:38;97050.81;;;0.18;71.50
49178;BME280;35016;55.674;37.468;2023-01-30T17:22:16;97058.00;;;0.17;71.62
49178;BME280;35016;55.674;37.468;2023-01-30T17:25:05;97053.47;;;0.18;71.66
49178;BME280;35016;55.674;37.468;2023-01-30T17:27:36;97056.94;;;0.18;71.66
49178;BME280;35016;55.674;37.468;2023-01-30T17:30:30;97059.34;;;0.20;71.27
49178;BME280;35016;55.674;37.468;2023-01-30T17:33:00;97043.34;;;0.20;71.25
49178;BME280;35016;55.674;37.468;2023-01-30T17:35:27;97061.47;;;0.18;71.58
49178;BME280;35016;55.674;37.468;2023-01-30T17:37:56;97061.41;;;0.13;71.65
49178;BME280;35016;55.674;37.468;2023-01-30T17:40:50;97040.91;;;0.13;71.65
49178;BME280;35016;55.674;37.468;2023-01-30T17:43:21;97069.97;;;0.15;71.21
49178;BME280;35016;55.674;37.468;2023-01-30T17:46:37;97059.56;;;0.13;71.66
49178;BME280;35016;55.674;37.468;2023-01-30T17:53:07;97052.06;;;0.10;71.17
49178;BME280;35016;55.674;37.468;2023-01-30T17:55:57;97063.78;;;0.09;71.61
49178;BME280;35016;55.674;37.468;2023-01-30T17:58:25;97068.31;;;0.09;71.34
49178;BME280;35016;55.674;37.468;2023-01-30T18:01:01;97064.03;;;0.08;71.28
49178;BME280;35016;55.674;37.468;2023-01-30T18:03:47;97067.50;;;0.08;71.13
49178;BME280;35016;55.674;37.468;2023-01-30T18:07:03;97073.63;;;0.09;71.49
49178;BME280;35016;55.674;37.468;2023-01-30T18:09:38;97053.38;;;0.08;71.55
49178;BME280;35016;55.674;37.468;2023-01-30T18:12:08;97065.09;;;0.07;71.70
49178;BME280;35016;55.674;37.468;2023-01-30T18:14:53;97065.09;;;0.07;71.24
49178;BME280;35016;55.674;37.468;2023-01-30T18:17:26;97074.69;;;0.08;71.62
49178;BME280;35016;55.674;37.468;2023-01-30T18:20:05;97071.53;;;0.11;71.69
49178;BME280;35016;55.674;37.468;2023-01-30T18:22:59;97056.34;;;0.11;71.47
49178;BME280;35016;55.674;37.468;2023-01-30T18:25:41;97059.81;;;0.12;71.58
49178;BME280;35016;55.674;37.468;2023-01-30T18:28:16;97056.34;;;0.11;71.23
49178;BME280;35016;55.674;37.468;2023-01-30T18:31:04;97042.47;;;0.09;71.28
49178;BME280;35016;55.674;37.468;2023-01-30T18:33:41;97074.44;;;0.09;71.25
49178;BME280;35016;55.674;37.468;2023-01-30T18:37:12;97066.97;;;0.06;71.44
49178;BME280;35016;55.674;37.468;2023-01-30T18:39:45;97077.06;;;0.04;71.24
49178;BME280;35016;55.674;37.468;2023-01-30T18:42:19;97059.47;;;0.03;71.63
49178;BME280;35016;55.674;37.468;2023-01-30T18:44:52;97079.72;;;0.04;71.14
49178;BME280;35016;55.674;37.468;2023-01-30T18:47:25;97066.66;;;0.03;71.22
49178;BME280;35016;55.674;37.468;2023-01-30T18:49:56;97056.25;;;0.01;71.12
49178;BME280;35016;55.674;37.468;2023-01-30T18:52:24;97067.72;;;0.02;71.07
49178;BME280;35016;55.674;37.468;2023-01-30T18:55:03;97060.78;;;0.01;71.33
49178;BME280;35016;55.674;37.468;2023-01-30T19:00:41;97061.00;;;-0.01;71.16
49178;BME280;35016;55.674;37.468;2023-01-30T19:03:10;97059.41;;;-0.02;71.20
49178;BME280;35016;55.674;37.468;2023-01-30T19:05:44;97063.66;;;-0.01;71.48
49178;BME280;35016;55.674;37.468;2023-01-30T19:08:11;97062.06;;;-0.02;71.37
49178;BME280;35016;55.674;37.468;2023-01-30T19:10:41;97056.47;;;-0.01;71.50
49178;BME280;35016;55.674;37.468;2023-01-30T19:13:11;97060.78;;;0.01;71.52
49178;BME280;35016;55.674;37.468;2023-01-30T19:16:03;97053.00;;;-0.01;71.54
49178;BME280;35016;55.674;37.468;2023-01-30T19:18:33;97050.34;;;-0.01;71.38
49178;BME280;35016;55.674;37.468;2023-01-30T19:21:03;97054.06;;;-0.02;71.52
49178;BME280;35016;55.674;37.468;2023-01-30T19:23:33;97059.16;;;-0.01;71.24
49178;BME280;35016;55.674;37.468;2023-01-30T19:26:00;97056.47;;;-0.01;71.24
49178;BME280;35016;55.674;37.468;2023-01-30T19:28:30;97054.06;;;-0.02;70.97
49178;BME280;35016;55.674;37.468;2023-01-30T19:33:55;97046.59;;;-0.05;71.26
49178;BME280;35016;55.674;37.468;2023-01-30T19:36:24;97060.16;;;-0.07;71.50
49178;BME280;35016;55.674;37.468;2023-01-30T19:39:18;97054.53;;;-0.10;71.42
49178;BME280;35016;55.674;37.468;2023-01-30T19:42:12;97061.41;;;-0.14;71.21
49178;BME280;35016;55.674;37.468;2023-01-30T19:44:45;97057.66;;;-0.18;71.13
49178;BME280;35016;55.674;37.468;2023-01-30T19:47:34;97063.47;;;-0.21;71.13
49178;BME280;35016;55.674;37.468;2023-01-30T19:50:01;97063.72;;;-0.23;71.41
49178;BME280;35016;55.674;37.468;2023-01-30T19:52:59;97061.06;;;-0.23;71.68
49178;BME280;35016;55.674;37.468;2023-01-30T19:55:36;97066.41;;;-0.23;71.26
49178;BME280;35016;55.674;37.468;2023-01-30T19:58:24;97057.84;;;-0.25;71.43
49178;BME280;35016;55.674;37.468;2023-01-30T20:01:18;97065.84;;;-0.25;71.63
49178;BME280;35016;55.674;37.468;2023-01-30T20:03:59;97059.38;;;-0.29;71.20
49178;BME280;35016;55.674;37.468;2023-01-30T20:06:33;97068.13;;;-0.34;71.58
49178;BME280;35016;55.674;37.468;2023-01-30T20:09:09;97061.69;;;-0.38;71.47
49178;BME280;35016;55.674;37.468;2023-01-30T20:12:02;97061.13;;;-0.40;71.55
49178;BME280;35016;55.674;37.468;2023-01-30T20:14:36;97070.19;;;-0.41;71.53
49178;BME280;35016;55.674;37.468;2023-01-30T20:17:07;97064.31;;;-0.43;71.70
49178;BME280;35016;55.674;37.468;2023-01-30T20:19:55;97064.31;;;-0.43;71.86
49178;BME280;35016;55.674;37.468;2023-01-30T20:22:36;97067.78;;;-0.42;71.68
49178;BME280;35016;55.674;37.468;2023-01-30T20:25:06;97066.97;;;-0.43;71.70
49178;BME280;35016;55.674;37.468;2023-01-30T20:27:38;97057.38;;;-0.44;71.89
49178;BME280;35016;55.674;37.468;2023-01-30T20:30:08;97049.13;;;-0.42;71.88
49178;BME280;35016;55.674;37.468;2023-01-30T20:33:05;97059.53;;;-0.41;71.74
49178;BME280;35016;55.674;37.468;2023-01-30T20:35:35;97069.63;;;-0.43;71.53
49178;BME280;35016;55.674;37.468;2023-01-30T20:44:26;97056.31;;;-0.43;71.89
49178;BME280;35016;55.674;37.468;2023-01-30T20:47:23;97058.97;;;-0.43;71.89
49178;BME280;35016;55.674;37.468;2023-01-30T20:50:08;97061.38;;;-0.41;71.71
49178;BME280;35016;55.674;37.468;2023-01-30T20:53:12;97056.31;;;-0.43;71.92
49178;BME280;35016;55.674;37.468;2023-01-30T20:55:57;97055.75;;;-0.45;71.70
49178;BME280;35016;55.674;37.468;2023-01-30T20:58:25;97050.69;;;-0.46;71.83
49178;BME280;35016;55.674;37.468;2023-01-30T21:01:06;97044.81;;;-0.48;71.97
49178;BME280;35016;55.674;37.468;2023-01-30T21:03:46;97044.75;;;-0.53;71.70
49178;BME280;35016;55.674;37.468;2023-01-30T21:06:18;97043.16;;;-0.54;72.13
49178;BME280;35016;55.674;37.468;2023-01-30T21:12:04;97056.22;;;-0.53;71.96
49178;BME280;35016;55.674;37.468;2023-01-30T21:14:39;97060.47;;;-0.52;72.15
49178;BME280;35016;55.674;37.468;2023-01-30T21:17:10;97058.06;;;-0.53;72.22
49178;BME280;35016;55.674;37.468;2023-01-30T21:19:40;97065.25;;;-0.54;71.91
49178;BME280;35016;55.674;37.468;2023-01-30T21:22:14;97065.25;;;-0.54;72.06
49178;BME280;35016;55.674;37.468;2023-01-30T21:24:41;97062.84;;;-0.55;71.95
49178;BME280;35016;55.674;37.468;2023-01-30T21:27:11;97052.19;;;-0.55;72.16
49178;BME280;35016;55.674;37.468;2023-01-30T21:29:54;97046.88;;;-0.55;72.22
49178;BME280;35016;55.674;37.468;2023-01-30T21:32:43;97055.09;;;-0.57;72.17
49178;BME280;35016;55.674;37.468;2023-01-30T21:35:11;97045.47;;;-0.58;71.96
49178;BME280;35016;55.674;37.468;2023-01-30T21:44:18;97057.97;;;-0.58;72.22
49178;BME280;35016;55.674;37.468;2023-01-30T21:46:55;97054.28;;;-0.57;72.08
49178;BME280;35016;55.674;37.468;2023-01-30T21:49:43;97056.72;;;-0.56;72.06
49178;BME280;35016;55.674;37.468;2023-01-30T21:52:18;97057.50;;;-0.55;72.60
49178;BME280;35016;55.674;37.468;2023-01-30T21:54:49;97046.63;;;-0.54;72.31
49178;BME280;35016;55.674;37.468;2023-01-30T22:00:53;97063.88;;;-0.56;72.17
49178;BME280;35016;55.674;37.468;2023-01-30T22:03:44;97063.88;;;-0.56;72.09